Daufuskie Island, South Carolina
Current Conditions -  °F | °C
As of 4:15 AM on Monday 22 Dec 2014 (Local Time) from KHXD Reporting Station
Haze Haze  
Wind Chill: 45°   Ceiling: 300
Heat Index: 48°   Visibility: 2.5mi
Dew Point: 48°   Wind: 7mph
Humidity: 100%   Direction: 10°N
Pressure: 30.02"   Gusts: NA
Location:  32.1°N, 80.89°W
Report Text: KHXD 220915Z AUTO 01006KT 2 1/2SM BR OVC003 09/09 A3002 RMK AO2 P0000
Loading
Personal Weather Stations






























Interactive Weather Map New forecast layout! Learn more

10-Day Weather Forecast

Advertisements
Track Severe Weather on mobile